Relevés horaires Eggishorn (Suisse)


Relevés horaires à Eggishorn - Jeudi 05 Mars 2015
Heure UTC1 Température [°C] Vent [km/h] Hum. [%] Pres.4 [hPa] Visi. [Km] Nébu. [octa] Préc.5 [mm] Cond.
2m. Res. Ros. Dir.2 Vit. Moy. Raf.3
23:00 -10.4 -21 -19.1 ENE 37.0 37.0 81.5 49 700(0.7/3h) -- -- -- --
22:00 -11.9 -21.7 -21.2 ENE 27.8 40.7 88.9 46 700(0.2/3h) -- -- -- --
21:00 -13.5 -23.1 -23.6 E 24.1 37.0 75.9 42 700(0.4/3h) -- -- -- --
20:00 -14.3 -25.6 -25.2 ESE 33.3 33.3 75.9 39 700(0.2/3h) -- -- -- --
19:00 -14.1 -22.7 -27.3 ESE 18.5 24.1 64.8 32 700(1.0/3h) -- -- -- --
18:00 -14.2 -22.8 -25.5 E 18.5 53.7 129.6 38 700(0.7/3h) -- -- -- --
17:00 -12.3 -20.8 -22.6 N 20.4 25.9 64.8 42 700(0.4/3h) -- -- -- --
16:00 -10.9 -22.6 -28.3 NNO 46.3 51.9 87.0 22 700(0.0/3h) -- -- -- --
15:00 -11.1 -23.6 -26.4 NNO 53.7 53.7 129.6 27 700(0.1/3h) -- -- -- --
14:00 -11.2 -20.8 -22.9 N 27.8 37.0 100.0 37 700(0.3/3h) -- -- -- --
13:00 -11.4 -20.7 -24.3 N 25.9 25.9 129.6 33 700(0.5/3h) -- -- -- --
12:00 -11.6 -20.3 -22.4 N 22.2 77.8 122.2 40 700(1.1/3h) -- -- -- --
11:00 -14.2 -23.2 -18.4 E 20.4 20.4 59.3 70 700(2.0/3h) -- -- -- --
10:00 -14.7 -21.9 -18.2 SE 13.0 29.6 79.6 75 700(2.3/3h) -- -- -- --
09:00 -14.3 -25.1 -21.2 NNO 29.6 77.8 122.2 56 700(2.2/3h) -- -- -- --
08:00 -15.0 -29.3 -23.5 NNO 57.4 77.8 122.2 48 700(-0.1/3h) -- -- -- --
07:00 -15.2 -30.4 -22.1 NNO 66.7 72.2 111.1 55 700(-1.0/3h) -- -- -- --
06:00 -16.1 -32.1 -25.4 NNO 72.2 72.2 107.4 44 700(-1.1/3h) -- -- -- --
05:00 -15.5 -29.3 -28.6 NNO 50.0 50.0 92.6 31 700(-0.2/3h) -- -- -- --
04:00 -17.1 -29 -23.8 N 31.5 46.3 77.8 56 700(0.3/3h) -- -- -- --
03:00 -16.2 -29.8 -27.6 NNO 46.3 66.7 96.3 37 700(0.5/3h) -- -- -- --
02:00 -15.8 -29.3 -28.4 NNO 46.3 61.1 83.3 33 700(1.2/3h) -- -- -- --
01:00 -16.1 -30.8 -24.3 NNO 57.4 66.7 96.3 49 700(0.6/3h) -- -- -- --
00:00 -16.1 -31.2 -24.4 NNO 61.1 68.5 94.5 49 700(0.7/3h) -- -- -- --

1 Coordinated Universal Time. Actuellement il est 01:00 locale et 23:00 UTC.

2 Le vent souffle depuis la direction indiquée vers la direction oposée.

3 Les rafales max. sont disponible 40 min après l'heure du relevé.

4 Pour les stations d'altitude (plus de 600m) le géopotentiel du niveau le plus proche de la pression obligatoire est indiqué.

5 Les stations disposant d'un diffuseur peuvent indiquer "trace". Cela signifie que des précipitations ont touchés le sol mais que la quantité est inférieure à 0.1 mm.

Copyright

Les données affichées sur cette page sont la propriété exclusive de Météo Suisse.

Récapitulatif de la journée
Température [°C] Vent [km/h] Ensoleillement4 [h] Precipitations totale5 [mm] Pression [Hpa]
Min1 Max.2 Moy.3 Max. Min Max.
-17.1 -10.3 50.3 129.6 9 h 48 min 0 700.0 700.0

1 Température minimale relevée entre 18:00 UTC la veille et 18:00 UTC le jour donné.

2 Température maximale relevée entre 06:00 UTC le jour donné et 06:00 UTC le lendemain.

3 Vent moyen de la journée basé sur les relevés horaires.

4 Ensoleillement en heures relevé entre 06:00 UTC la veille et 06:00 UTC le jour donné.

5 Précipitations totales tombées entre 06:00 UTC la jour donné et 06:00 UTC le lendemain.

Graphiques horaires